Time;durP1;ratioP1;P1;durP2;ratioP2;P2;SDS_P1;SDS_P2;PMS_P1;PMS_P2;Temp;Humidity;BMP_temperature;BMP_pressure;BME280_temperature;BME280_humidity;BME280_pressure;Samples;Min_cycle;Max_cycle;Signal;HPM_P1;HPM_P2
2020/12/01 00:00:17;;;;;;;21.17;9.10;;;;;;;-0.02;76.75;100465.66;2979439;39;20166;-57
2020/12/01 00:02:18;;;;;;;;;;;;;;;-0.03;76.88;100459.63;2980915;39;20172;-58
2020/12/01 00:04:20;;;;;;;13.45;7.82;;;;;;;-0.04;76.99;100462.06;2983484;32;20070;-41
2020/12/01 00:06:22;;;;;;;15.48;7.85;;;;;;;-0.08;77.19;100460.97;2981612;39;20116;-57
2020/12/01 00:08:23;;;;;;;17.35;8.45;;;;;;;-0.08;77.16;100463.53;2979793;39;20124;-58
2020/12/01 00:10:24;;;;;;;17.40;8.30;;;;;;;-0.10;77.17;100464.22;2981331;39;20116;-40
2020/12/01 00:12:26;;;;;;;16.65;7.97;;;;;;;-0.11;77.29;100459.88;2980826;39;20124;-40
2020/12/01 00:14:28;;;;;;;19.10;8.77;;;;;;;-0.13;77.28;100469.97;2981463;39;20127;-58
2020/12/01 00:16:30;;;;;;;17.48;9.02;;;;;;;-0.15;77.43;100472.44;2982221;39;20204;-58
2020/12/01 00:18:31;;;;;;;18.25;9.02;;;;;;;-0.17;77.60;100484.19;2979012;39;20544;-58
2020/12/01 00:20:33;;;;;;;18.88;9.23;;;;;;;-0.20;77.63;100475.44;2981350;39;20178;-58
2020/12/01 00:22:34;;;;;;;22.80;8.93;;;;;;;-0.21;77.70;100473.69;2983295;39;20146;-57
2020/12/01 00:24:36;;;;;;;19.77;9.80;;;;;;;-0.23;77.87;100472.69;2986690;39;20615;-58
2020/12/01 00:26:37;;;;;;;17.38;8.50;;;;;;;-0.26;77.75;100485.22;2986655;39;20103;-58
2020/12/01 00:28:39;;;;;;;20.00;8.70;;;;;;;-0.28;77.95;100481.69;2980728;39;20120;-41
2020/12/01 00:30:42;;;;;;;19.13;9.30;;;;;;;-0.31;78.18;100486.56;2981312;39;20124;-40
2020/12/01 00:32:46;;;;;;;19.52;9.65;;;;;;;-0.35;78.44;100482.91;2980102;39;20118;-57
2020/12/01 00:34:47;;;;;;;18.80;9.73;;;;;;;-0.37;78.39;100484.47;2981660;39;20164;-58
2020/12/01 00:36:48;;;;;;;23.27;9.88;;;;;;;-0.39;78.60;100481.81;2980460;39;20124;-41
2020/12/01 00:38:50;;;;;;;19.13;9.10;;;;;;;-0.41;78.71;100479.91;2980557;39;20143;-41
2020/12/01 00:40:52;;;;;;;20.98;10.65;;;;;;;-0.44;78.86;100475.50;2980931;39;20125;-59
2020/12/01 00:42:54;;;;;;;22.23;9.90;;;;;;;-0.45;79.07;100477.94;2982101;39;20108;-41
2020/12/01 00:44:55;;;;;;;21.63;10.65;;;;;;;-0.47;79.15;100476.94;2981694;39;20116;-58
2020/12/01 00:46:56;;;;;;;19.45;9.50;;;;;;;-0.49;79.27;100481.94;2981084;39;20133;-41
2020/12/01 00:48:59;;;;;;;19.23;9.35;;;;;;;-0.50;79.42;100474.19;2980715;39;20532;-58
2020/12/01 00:51:00;;;;;;;22.80;10.32;;;;;;;-0.53;79.51;100468.09;2981753;39;20121;-41
2020/12/01 00:53:02;;;;;;;21.20;9.15;;;;;;;-0.54;79.67;100476.50;3012502;32;20120;-40
2020/12/01 00:55:04;;;;;;;21.17;9.85;;;;;;;-0.55;79.85;100479.84;2979786;39;20124;-57
2020/12/01 00:57:06;;;;;;;20.00;9.00;;;;;;;-0.55;79.71;100482.41;2981534;39;20116;-40
2020/12/01 00:59:07;;;;;;;20.15;9.90;;;;;;;-0.56;79.91;100475.50;2981305;39;20108;-57
2020/12/01 01:01:08;;;;;;;21.85;9.55;;;;;;;-0.56;79.97;100475.50;2980358;39;20519;-57
2020/12/01 01:03:10;;;;;;;25.15;11.02;;;;;;;-0.56;79.99;100467.00;2979467;39;20174;-58
2020/12/01 01:05:12;;;;;;;18.58;9.93;;;;;;;-0.57;80.12;100468.66;2981237;39;20112;-41
2020/12/01 01:07:14;;;;;;;21.88;9.98;;;;;;;-0.58;80.27;100477.06;2979947;39;20112;-41
2020/12/01 01:09:16;;;;;;;22.90;10.10;;;;;;;-0.59;80.27;100474.41;2981371;39;20577;-40
2020/12/01 01:11:27;;;;;;;19.67;9.38;;;;;;;-0.59;80.58;100476.97;2979185;39;20138;-40
2020/12/01 01:13:29;;;;;;;18.85;9.82;;;;;;;-0.59;80.63;100482.97;2980227;39;20577;-42
2020/12/01 01:15:32;;;;;;;19.40;10.40;;;;;;;-0.60;80.82;100473.53;2980280;39;20109;-58
2020/12/01 01:17:34;;;;;;;22.30;9.98;;;;;;;-0.61;80.89;100476.84;2981950;39;20109;-58
2020/12/01 01:19:35;;;;;;;23.80;10.15;;;;;;;-0.60;81.10;100477.75;2982452;39;20132;-41
2020/12/01 01:21:42;;;;;;;20.73;10.48;;;;;;;-0.59;81.04;100482.06;2979448;39;20124;-41
2020/12/01 01:23:44;;;;;;;24.88;10.55;;;;;;;-0.59;80.91;100480.41;2979926;39;20144;-58
2020/12/01 01:25:45;;;;;;;24.67;10.88;;;;;;;-0.59;80.93;100488.06;2984257;39;20121;-58
2020/12/01 01:27:47;;;;;;;22.58;10.40;;;;;;;-0.60;80.99;100483.72;2986028;39;20116;-58
2020/12/01 01:29:49;;;;;;;26.55;10.65;;;;;;;-0.59;81.07;100487.16;2981471;39;20101;-58
2020/12/01 01:31:52;;;;;;;20.38;10.05;;;;;;;-0.60;81.16;100486.28;2981324;39;20229;-58
2020/12/01 01:33:54;;;;;;;24.15;11.13;;;;;;;-0.61;81.14;100491.25;2981268;39;20117;-41
2020/12/01 01:35:55;;;;;;;20.90;9.13;;;;;;;-0.60;81.30;100493.03;2982073;39;20579;-41
2020/12/01 01:37:57;;;;;;;24.05;10.60;;;;;;;-0.60;81.43;100485.41;2982009;39;20111;-59
2020/12/01 01:39:58;;;;;;;24.75;10.38;;;;;;;-0.58;81.56;100497.47;2980832;39;20097;-59
2020/12/01 01:42:04;;;;;;;19.35;10.05;;;;;;;-0.58;81.73;100489.81;2981594;39;20608;-58
2020/12/01 01:44:21;;;;;;;23.88;10.07;;;;;;;-0.57;81.70;100480.50;2981240;39;20105;-41
2020/12/01 01:46:36;;;;;;;18.42;9.10;;;;;;;-0.54;81.71;100478.19;2983157;39;20131;-41
2020/12/01 01:48:37;;;;;;;18.75;9.75;;;;;;;-0.55;81.59;100472.19;2982499;39;20133;-40
2020/12/01 01:50:39;;;;;;;20.67;9.35;;;;;;;-0.54;81.58;100473.06;2980973;39;20109;-41
2020/12/01 01:52:43;;;;;;;21.60;9.68;;;;;;;-0.54;81.56;100481.59;2981494;39;20489;-58
2020/12/01 01:54:49;;;;;;;21.77;9.57;;;;;;;-0.56;81.54;100475.50;2982550;39;20112;-40
2020/12/01 01:56:53;;;;;;;19.67;9.65;;;;;;;-0.55;81.82;100479.84;2982034;39;20108;-41
2020/12/01 01:58:57;;;;;;;18.58;9.32;;;;;;;-0.55;81.86;100474.75;2981862;39;20105;-41
2020/12/01 02:01:04;;;;;;;19.48;9.48;;;;;;;-0.55;81.63;100482.41;2981096;39;20233;-40
2020/12/01 02:03:06;;;;;;;18.02;8.63;;;;;;;-0.56;81.59;100482.28;2988105;39;20108;-41
2020/12/01 02:05:07;;;;;;;18.30;9.05;;;;;;;-0.56;81.91;100483.16;2983120;39;20135;-41
2020/12/01 02:07:08;;;;;;;17.95;9.18;;;;;;;-0.57;81.73;100472.84;2983063;39;20160;-57
2020/12/01 02:09:13;;;;;;;17.67;9.60;;;;;;;-0.57;81.76;100477.94;2983042;39;20193;-41
2020/12/01 02:11:15;;;;;;;18.10;9.25;;;;;;;-0.57;81.86;100478.84;2980320;39;20439;-41
2020/12/01 02:13:22;;;;;;;16.35;9.00;;;;;;;-0.58;82.02;100479.63;2980896;39;20513;-59
2020/12/01 02:15:24;;;;;;;22.75;9.57;;;;;;;-0.56;81.82;100479.72;2984710;39;20112;-41
2020/12/01 02:17:28;;;;;;;19.73;8.95;;;;;;;-0.57;81.73;100473.75;2986669;39;20100;-59
2020/12/01 02:19:30;;;;;;;18.52;9.60;;;;;;;-0.58;81.70;100468.56;2982894;39;20120;-41
2020/12/01 02:21:35;;;;;;;20.50;9.65;;;;;;;-0.57;81.58;100472.84;2980846;39;20158;-58
2020/12/01 02:23:37;;;;;;;17.48;8.23;;;;;;;-0.58;81.46;100477.06;2981718;39;20577;-58
2020/12/01 02:25:38;;;;;;;18.58;9.52;;;;;;;-0.57;81.70;100488.16;2984250;39;20097;-58
2020/12/01 02:27:40;;;;;;;20.73;7.88;;;;;;;-0.58;81.53;100489.81;2989108;39;20196;-57
2020/12/01 02:29:45;;;;;;;18.52;8.55;;;;;;;-0.58;81.57;100494.03;2980471;39;20129;-58
2020/12/01 02:31:46;;;;;;;17.80;8.75;;;;;;;-0.58;81.24;100500.00;2981070;39;20561;-58
2020/12/01 02:33:48;;;;;;;16.95;7.80;;;;;;;-0.59;81.48;100505.91;2981333;39;20189;-41
2020/12/01 02:35:50;;;;;;;15.50;7.63;;;;;;;-0.60;81.46;100503.25;2983119;39;20131;-40
2020/12/01 02:37:51;;;;;;;16.67;8.13;;;;;;;-0.61;81.28;100509.97;2981374;39;20113;-40
2020/12/01 02:39:53;;;;;;;19.20;8.13;;;;;;;-0.62;81.20;100518.41;2988534;39;20152;-59
2020/12/01 02:41:56;;;;;;;15.63;8.10;;;;;;;-0.65;81.30;100514.75;2983217;39;20500;-58
2020/12/01 02:43:58;;;;;;;16.20;7.60;;;;;;;-0.66;81.07;100518.06;2980615;39;20601;-40
2020/12/01 02:46:00;;;;;;;15.25;7.15;;;;;;;-0.69;81.16;100520.38;2980999;39;20112;-59
2020/12/01 02:48:01;;;;;;;15.77;7.72;;;;;;;-0.73;81.00;100525.28;2980249;39;20085;-59
2020/12/01 02:50:03;;;;;;;16.08;8.40;;;;;;;-0.76;81.11;100524.19;2980843;39;20128;-59
2020/12/01 02:52:05;;;;;;;14.85;7.68;;;;;;;-0.80;80.98;100519.63;2981756;39;20172;-58
2020/12/01 02:54:06;;;;;;;15.90;8.27;;;;;;;-0.84;81.14;100518.50;2981895;39;20124;-58
2020/12/01 02:56:08;;;;;;;15.90;8.50;;;;;;;-0.87;81.10;100510.66;2982442;39;20112;-58
2020/12/01 02:58:09;;;;;;;16.23;7.55;;;;;;;-0.87;80.98;100514.84;2981346;39;20112;-59
2020/12/01 03:00:11;;;;;;;14.52;8.00;;;;;;;-0.89;81.11;100516.41;2981439;39;20170;-59
2020/12/01 03:02:13;;;;;;;20.67;8.82;;;;;;;-0.91;80.98;100521.38;2981933;39;20125;-41
2020/12/01 03:04:14;;;;;;;19.70;7.82;;;;;;;-0.93;81.24;100508.53;2982701;39;20197;-59
2020/12/01 03:06:19;;;;;;;15.48;8.55;;;;;;;-0.92;80.93;100504.34;2980870;39;20120;-58
2020/12/01 03:08:20;;;;;;;17.42;9.25;;;;;;;-0.94;80.94;100503.31;2981488;39;20230;-41
2020/12/01 03:10:21;;;;;;;16.20;8.13;;;;;;;-0.97;81.06;100500.59;2981683;39;20117;-41
2020/12/01 03:12:23;;;;;;;13.52;6.95;;;;;;;-1.00;81.24;100502.91;2984686;39;20108;-58
2020/12/01 03:14:25;;;;;;;13.07;6.63;;;;;;;-1.03;81.18;100507.75;2982089;39;20139;-41
2020/12/01 03:16:27;;;;;;;17.35;8.48;;;;;;;-1.06;81.17;100516.06;2981222;39;20166;-58
2020/12/01 03:18:29;;;;;;;20.48;8.18;;;;;;;-1.07;81.31;100518.50;2984133;39;20211;-58
2020/12/01 03:20:30;;;;;;;14.70;7.05;;;;;;;-1.07;81.17;100523.59;2986211;39;20173;-41
2020/12/01 03:22:32;;;;;;;14.95;7.35;;;;;;;-1.11;81.03;100517.38;2979994;39;20424;-41
2020/12/01 03:24:33;;;;;;;16.63;8.10;;;;;;;-1.13;81.04;100524.03;2980550;39;20186;-41
2020/12/01 03:26:35;;;;;;;17.15;8.52;;;;;;;-1.16;81.31;100516.16;2981568;39;20104;-41
2020/12/01 03:28:36;;;;;;;17.60;7.72;;;;;;;-1.18;81.18;100523.69;2981126;39;20179;-58
2020/12/01 03:30:37;;;;;;;18.88;9.32;;;;;;;-1.19;81.42;100521.03;2980432;39;20115;-59
2020/12/01 03:32:40;;;;;;;16.63;8.15;;;;;;;-1.22;81.56;100518.25;2987566;39;20096;-41
2020/12/01 03:34:41;;;;;;;17.42;8.60;;;;;;;-1.23;81.40;100509.72;2982053;39;20127;-59
2020/12/01 03:36:44;;;;;;;17.88;8.68;;;;;;;-1.23;81.50;100511.41;2981753;39;20111;-41
2020/12/01 03:38:46;;;;;;;20.77;8.93;;;;;;;-1.24;81.65;100514.69;2982508;39;20108;-41
2020/12/01 03:40:47;;;;;;;20.42;9.48;;;;;;;-1.25;81.87;100513.81;2984750;39;20108;-41
2020/12/01 03:42:49;;;;;;;15.73;7.97;;;;;;;-1.26;81.86;100523.88;2981630;39;20174;-40
2020/12/01 03:44:50;;;;;;;16.55;7.40;;;;;;;-1.27;81.82;100530.66;2980550;39;20116;-59
2020/12/01 03:46:52;;;;;;;20.48;8.80;;;;;;;-1.28;82.01;100526.31;2982903;39;20493;-41
2020/12/01 03:48:58;;;;;;;16.85;8.35;;;;;;;-1.29;81.79;100532.19;2979617;39;20127;-41
2020/12/01 03:50:59;;;;;;;18.58;8.75;;;;;;;-1.31;81.85;100521.03;2980268;39;20097;-41
2020/12/01 03:53:01;;;;;;;17.17;9.50;;;;;;;-1.32;81.89;100525.19;2980408;39;20124;-59
2020/12/01 03:55:02;;;;;;;17.67;8.43;;;;;;;-1.35;81.70;100521.53;2982285;39;20233;-59
2020/12/01 03:57:04;;;;;;;18.20;8.10;;;;;;;-1.37;81.74;100512.91;2981062;39;20450;-58
2020/12/01 03:59:05;;;;;;;14.48;8.40;;;;;;;-1.40;81.89;100516.13;2979796;39;20426;-41
2020/12/01 04:01:07;;;;;;;17.30;9.27;;;;;;;-1.41;82.04;100516.00;2983919;39;20112;-41
2020/12/01 04:03:08;;;;;;;20.52;8.75;;;;;;;-1.43;81.86;100504.84;2985531;39;20108;-41
2020/12/01 04:05:11;;;;;;;21.48;9.05;;;;;;;-1.44;81.89;100510.69;2986584;39;20681;-41
2020/12/01 04:07:13;;;;;;;20.38;9.43;;;;;;;-1.48;81.97;100509.56;2979947;39;20160;-41
2020/12/01 04:09:32;;;;;;;19.38;8.45;;;;;;;-1.53;82.03;100508.34;2999882;32;20139;-41
2020/12/01 04:11:34;;;;;;;22.33;10.15;;;;;;;-1.55;82.08;100509.88;2980740;39;20546;-41
2020/12/01 04:13:35;;;;;;;19.98;9.50;;;;;;;-1.59;82.05;100496.03;2981801;39;20096;-41
2020/12/01 04:15:36;;;;;;;16.92;8.50;;;;;;;-1.62;82.25;100500.88;2985016;39;20132;-41
2020/12/01 04:17:38;;;;;;;19.65;8.82;;;;;;;-1.64;82.13;100504.09;2989559;39;20168;-40
2020/12/01 04:19:40;;;;;;;20.98;9.05;;;;;;;-1.67;82.36;100499.66;2984975;39;20165;-41
2020/12/01 04:21:42;;;;;;;17.63;8.00;;;;;;;-1.70;82.20;100496.88;2986229;39;20109;-40
2020/12/01 04:23:50;;;;;;;20.85;8.38;;;;;;;-1.72;81.96;100498.41;2984187;39;20187;-43
2020/12/01 04:25:52;;;;;;;17.38;8.73;;;;;;;-1.74;82.28;100510.13;2985050;39;20107;-41
2020/12/01 04:27:56;;;;;;;22.13;9.70;;;;;;;-1.77;82.33;100510.81;2987704;39;20116;-41
2020/12/01 04:29:57;;;;;;;18.42;9.43;;;;;;;-1.78;82.45;100514.09;2980739;39;20156;-41
2020/12/01 04:31:58;;;;;;;23.17;9.50;;;;;;;-1.78;82.58;100513.22;2980606;39;20116;-41
2020/12/01 04:34:00;;;;;;;16.55;8.55;;;;;;;-1.79;82.71;100511.44;2986495;39;20104;-41
2020/12/01 04:36:01;;;;;;;22.75;9.93;;;;;;;-1.81;82.84;100506.25;2989419;39;20144;-43
2020/12/01 04:38:06;;;;;;;19.98;9.25;;;;;;;-1.80;82.84;100510.56;2980556;39;20117;-41
2020/12/01 04:40:08;;;;;;;;;;;;;;;-1.82;82.73;100508.66;2982559;39;20229;-41
2020/12/01 04:42:15;;;;;;;20.65;10.02;;;;;;;-1.84;82.90;100500.03;3007311;32;20021;-41
2020/12/01 04:44:25;;;;;;;21.40;10.45;;;;;;;-1.88;82.71;100502.38;2987381;39;20643;-41
2020/12/01 04:46:30;;;;;;;21.77;10.32;;;;;;;-1.92;82.67;100499.47;2979438;39;20687;-41
2020/12/01 04:48:38;;;;;;;21.00;11.90;;;;;;;-1.95;82.91;100502.63;2983438;39;20112;-41
2020/12/01 04:50:44;;;;;;;19.05;10.05;;;;;;;-1.97;82.63;100503.31;2982970;39;20190;-40
2020/12/01 04:53:15;;;;;;;26.17;11.27;;;;;;;-1.99;82.86;100505.72;2982011;39;20104;-40
2020/12/01 04:55:56;;;;;;;19.10;10.75;;;;;;;-1.99;82.91;100512.47;2986445;39;20253;-41
2020/12/01 04:58:20;;;;;;;25.60;11.23;;;;;;;-2.01;82.79;100516.56;2981191;39;20127;-40
2020/12/01 05:00:31;;;;;;;23.02;11.13;;;;;;;-2.01;83.13;100521.63;2982134;39;20612;-41
2020/12/01 05:02:56;;;;;;;21.35;11.65;;;;;;;-2.02;83.13;100530.03;2979493;39;20116;-40
2020/12/01 05:05:24;;;;;;;25.10;11.60;;;;;;;-2.01;83.55;100529.25;2985635;39;20482;-42
2020/12/01 05:07:42;;;;;;;26.25;11.82;;;;;;;-2.01;83.59;100534.34;2981501;39;20112;-41
2020/12/01 05:09:46;;;;;;;23.20;11.68;;;;;;;-2.01;83.78;100525.06;2982661;39;20147;-41
2020/12/01 05:11:54;;;;;;;25.03;12.53;;;;;;;-2.00;83.84;100529.38;2982492;39;20186;-59
2020/12/01 05:14:02;;;;;;;26.48;12.35;;;;;;;-1.99;83.92;100531.16;2981927;39;20266;-59
2020/12/01 05:16:16;;;;;;;27.77;12.65;;;;;;;-1.97;84.01;100529.59;2983109;39;20125;-42
2020/12/01 05:18:20;;;;;;;26.13;12.13;;;;;;;-1.96;83.97;100522.88;2982823;39;20121;-59
2020/12/01 05:20:22;;;;;;;20.60;10.93;;;;;;;-1.95;84.13;100528.06;2982637;39;20121;-59
2020/12/01 05:22:25;;;;;;;26.00;12.68;;;;;;;-1.93;84.36;100515.47;2984375;39;20144;-41
2020/12/01 05:24:36;;;;;;;23.05;10.93;;;;;;;-1.90;84.50;100520.78;2982615;39;20128;-41
2020/12/01 05:26:39;;;;;;;24.65;12.63;;;;;;;-1.87;84.46;100523.59;2987264;39;20108;-59
2020/12/01 05:28:46;;;;;;;27.60;11.45;;;;;;;-1.84;84.68;100530.53;2982202;39;20144;-59
2020/12/01 05:30:59;;;;;;;24.10;11.73;;;;;;;-1.81;84.71;100525.69;2982290;39;20585;-59
2020/12/01 05:33:07;;;;;;;27.80;12.05;;;;;;;-1.79;84.64;100534.34;2990031;32;20176;-58
2020/12/01 05:35:16;;;;;;;25.67;12.07;;;;;;;-1.79;84.66;100530.13;2982072;39;20565;-59
2020/12/01 05:37:18;;;;;;;26.77;12.38;;;;;;;-1.76;84.71;100527.81;2987534;39;20237;-41
2020/12/01 05:39:21;;;;;;;24.08;11.50;;;;;;;-1.75;84.62;100527.06;2981315;39;20581;-41
2020/12/01 05:41:27;;;;;;;31.05;12.90;;;;;;;-1.74;84.78;100525.41;2982413;39;20155;-58
2020/12/01 05:43:33;;;;;;;22.33;11.73;;;;;;;-1.74;84.73;100526.28;2984423;39;20120;-58
2020/12/01 05:45:37;;;;;;;29.23;13.25;;;;;;;-1.75;84.92;100521.09;2981794;39;20561;-58
2020/12/01 05:47:45;;;;;;;31.63;15.60;;;;;;;-1.71;84.98;100533.28;2981081;39;20184;-59
2020/12/01 05:49:50;;;;;;;27.58;12.68;;;;;;;-1.72;84.95;100528.94;2982260;39;20572;-59
2020/12/01 05:51:58;;;;;;;27.55;13.20;;;;;;;-1.71;85.11;100518.88;2982101;39;20119;-59
2020/12/01 05:54:00;;;;;;;30.27;14.77;;;;;;;-1.70;85.13;100520.66;2982453;39;20557;-59
2020/12/01 05:56:16;;;;;;;30.27;14.55;;;;;;;-1.68;84.96;100528.44;2983294;39;20414;-58
2020/12/01 05:58:18;;;;;;;33.80;15.32;;;;;;;-1.67;85.13;100523.44;2984369;39;20224;-58
2020/12/01 06:00:23;;;;;;;34.42;14.95;;;;;;;-1.65;85.15;100536.25;2984989;39;20108;-59
2020/12/01 06:02:46;;;;;;;31.70;14.75;;;;;;;-1.63;85.14;100536.38;2986819;39;20120;-59
2020/12/01 06:04:48;;;;;;;28.33;15.25;;;;;;;-1.61;85.16;100542.47;2983211;39;20120;-59
2020/12/01 06:07:10;;;;;;;28.38;14.20;;;;;;;-1.59;85.27;100535.88;2984653;39;20116;-59
2020/12/01 06:09:19;;;;;;;31.73;14.45;;;;;;;-1.58;85.24;100533.41;2994423;32;20748;-41
2020/12/01 06:11:35;;;;;;;32.95;14.73;;;;;;;-1.56;85.18;100539.53;2991398;32;20115;-40
2020/12/01 06:13:42;;;;;;;29.38;13.93;;;;;;;-1.53;85.10;100543.94;2980589;39;20573;-40
2020/12/01 06:16:01;;;;;;;49.95;15.90;;;;;;;-1.51;85.17;100535.66;2983497;39;20136;-42
2020/12/01 06:18:15;;;;;;;40.67;14.48;;;;;;;-1.50;85.23;100529.81;2983166;39;20116;-41
2020/12/01 06:20:20;;;;;;;28.15;14.45;;;;;;;-1.48;85.38;100524.84;2982734;39;20573;-42
2020/12/01 06:22:50;;;;;;;30.85;13.38;;;;;;;-1.44;85.27;100539.56;2984980;39;20115;-59
2020/12/01 06:25:27;;;;;;;35.97;15.82;;;;;;;-1.41;85.40;100534.69;2985556;39;20167;-58
2020/12/01 06:27:59;;;;;;;31.70;15.60;;;;;;;-1.36;85.66;100546.13;2986456;39;20127;-58
2020/12/01 06:30:22;;;;;;;33.22;14.80;;;;;;;-1.31;85.60;100541.38;2985160;39;20116;-41
2020/12/01 06:33:12;;;;;;;34.22;15.45;;;;;;;-1.26;85.78;100537.50;2987128;39;20688;-44
2020/12/01 06:35:42;;;;;;;27.40;13.10;;;;;;;-1.19;85.74;100551.56;2985568;39;20123;-41
2020/12/01 06:38:07;;;;;;;28.13;13.20;;;;;;;-1.15;85.80;100556.13;2986215;39;20105;-41
2020/12/01 06:40:29;;;;;;;30.75;12.40;;;;;;;-1.11;85.76;100553.91;2988223;39;20104;-58
2020/12/01 06:42:36;;;;;;;23.83;10.95;;;;;;;-1.06;85.57;100553.38;2982331;39;20108;-59
2020/12/01 06:44:39;;;;;;;29.55;11.77;;;;;;;-0.99;85.90;100550.53;2982101;39;20108;-58
2020/12/01 06:46:44;;;;;;;20.25;10.98;;;;;;;-0.93;85.52;100551.81;2982053;39;20581;-58
2020/12/01 06:48:48;;;;;;;30.08;11.23;;;;;;;-0.88;85.29;100551.31;2998640;32;20145;-58
2020/12/01 06:50:53;;;;;;;24.03;9.93;;;;;;;-0.85;84.86;100554.06;2983861;39;20121;-58
2020/12/01 06:52:57;;;;;;;23.42;9.88;;;;;;;-0.82;84.52;100555.16;2989306;32;20198;-58
2020/12/01 06:54:59;;;;;;;19.27;9.75;;;;;;;-0.79;84.57;100563.03;2983788;39;20121;-57
2020/12/01 06:57:05;;;;;;;18.83;9.82;;;;;;;-0.75;84.65;100553.94;2984006;39;20120;-59
2020/12/01 06:59:08;;;;;;;23.85;11.30;;;;;;;-0.71;84.35;100553.44;2983769;39;20105;-59
2020/12/01 07:01:27;;;;;;;25.95;11.70;;;;;;;-0.69;83.87;100556.97;2984744;39;20665;-59
2020/12/01 07:03:29;;;;;;;22.30;10.68;;;;;;;-0.66;83.90;100562.28;2987769;39;20108;-57
2020/12/01 07:05:33;;;;;;;31.52;12.02;;;;;;;-0.63;83.87;100565.03;2983825;39;20132;-58
2020/12/01 07:07:37;;;;;;;26.50;11.23;;;;;;;-0.60;83.80;100559.28;2983233;39;20162;-58
2020/12/01 07:09:47;;;;;;;21.40;10.30;;;;;;;-0.59;83.58;100567.06;2986880;39;20144;-58
2020/12/01 07:12:08;;;;;;;30.17;12.70;;;;;;;-0.56;83.38;100562.16;2986241;39;20123;-58
2020/12/01 07:14:20;;;;;;;26.08;12.32;;;;;;;-0.52;83.20;100570.91;2978020;39;20634;-57
2020/12/01 07:16:29;;;;;;;26.48;11.93;;;;;;;-0.49;83.21;100566.03;2984682;39;20202;-58
2020/12/01 07:18:32;;;;;;;35.10;12.45;;;;;;;-0.46;83.02;100573.03;2984838;39;20120;-57
2020/12/01 07:20:38;;;;;;;38.70;12.30;;;;;;;-0.44;83.18;100567.25;2985673;39;20108;-57
2020/12/01 07:22:49;;;;;;;29.00;12.00;;;;;;;-0.43;82.60;100574.16;2983883;39;20153;-57
2020/12/01 07:24:53;;;;;;;31.52;14.40;;;;;;;-0.40;82.55;100571.78;2986528;39;20573;-57
2020/12/01 07:27:01;;;;;;;24.95;10.70;;;;;;;-0.37;82.38;100571.13;2983903;39;20152;-41
2020/12/01 07:29:18;;;;;;;21.38;11.57;;;;;;;-0.36;82.20;100566.16;2983709;39;20117;-57
2020/12/01 07:31:22;;;;;;;23.20;11.23;;;;;;;-0.34;82.41;100559.50;2985289;39;20504;-57
2020/12/01 07:33:28;;;;;;;25.77;11.25;;;;;;;-0.29;82.43;100566.56;2983767;39;20195;-57
2020/12/01 07:35:36;;;;;;;22.27;11.55;;;;;;;-0.27;82.09;100563.38;2986638;39;20109;-57
2020/12/01 07:37:54;;;;;;;25.77;12.52;;;;;;;-0.25;82.19;100566.91;2983506;39;20121;-58
2020/12/01 07:39:57;;;;;;;30.85;13.80;;;;;;;-0.24;82.04;100566.13;2985503;39;20128;-56
2020/12/01 07:42:04;;;;;;;27.45;13.38;;;;;;;-0.23;81.63;100570.47;2994879;32;20546;-41
2020/12/01 07:44:09;;;;;;;26.75;12.02;;;;;;;-0.25;81.47;100563.47;2984779;39;20108;-42
2020/12/01 07:46:11;;;;;;;28.30;14.45;;;;;;;-0.26;81.41;100561.72;2983974;39;20132;-40
2020/12/01 07:48:16;;;;;;;20.95;10.77;;;;;;;-0.27;81.49;100565.03;2983959;39;20116;-40
2020/12/01 07:50:20;;;;;;;25.38;11.85;;;;;;;-0.27;81.67;100560.81;2984632;39;20119;-40
2020/12/01 07:52:30;;;;;;;28.15;10.07;;;;;;;-0.26;81.68;100561.72;2986547;39;20454;-40
2020/12/01 07:54:37;;;;;;;27.50;10.73;;;;;;;-0.26;81.45;100564.25;3000904;32;20547;-41
2020/12/01 07:56:39;;;;;;;24.17;10.38;;;;;;;-0.26;81.29;100559.16;2987237;39;20124;-40
2020/12/01 07:58:41;;;;;;;24.20;10.88;;;;;;;-0.25;81.24;100563.47;2984409;39;20608;-41
2020/12/01 08:00:48;;;;;;;26.70;10.57;;;;;;;-0.24;81.33;100549.94;2983601;39;20170;-40
2020/12/01 08:02:50;;;;;;;20.75;9.85;;;;;;;-0.22;81.42;100553.47;2981947;39;20151;-40
2020/12/01 08:04:59;;;;;;;24.00;10.57;;;;;;;-0.20;81.54;100547.75;2983578;39;20108;-41
2020/12/01 08:07:02;;;;;;;19.05;9.40;;;;;;;-0.17;81.63;100549.59;2982692;39;20189;-41
2020/12/01 08:09:12;;;;;;;17.15;8.80;;;;;;;-0.17;81.24;100553.03;2983980;39;20830;-41
2020/12/01 08:11:16;;;;;;;18.30;10.10;;;;;;;-0.15;81.32;100555.69;2981907;39;20121;-41
2020/12/01 08:13:20;;;;;;;20.33;10.25;;;;;;;-0.12;81.17;100555.03;2985297;39;20116;-41
2020/12/01 08:15:23;;;;;;;15.63;8.32;;;;;;;-0.10;80.63;100566.22;2980901;39;20189;-41
2020/12/01 08:17:29;;;;;;;18.40;9.30;;;;;;;-0.08;80.03;100555.34;2982294;39;20152;-40
2020/12/01 08:19:31;;;;;;;16.00;8.57;;;;;;;-0.04;79.86;100553.88;2981780;39;20120;-41
2020/12/01 08:21:45;;;;;;;17.90;9.73;;;;;;;0.01;79.92;100557.66;2982880;39;20140;-41
2020/12/01 08:23:50;;;;;;;20.42;9.57;;;;;;;0.06;80.22;100553.75;2983496;39;20115;-41
2020/12/01 08:26:13;;;;;;;15.80;8.57;;;;;;;0.12;80.42;100551.66;2983267;39;20123;-40
2020/12/01 08:28:23;;;;;;;21.30;10.35;;;;;;;0.23;80.36;100552.38;2979758;39;20182;-40
2020/12/01 08:30:36;;;;;;;21.02;9.88;;;;;;;0.34;80.46;100556.56;2986543;39;20144;-40
2020/12/01 08:32:42;;;;;;;17.00;9.93;;;;;;;0.42;79.93;100560.53;2985790;39;20111;-41
2020/12/01 08:34:51;;;;;;;19.50;10.38;;;;;;;0.50;79.93;100563.59;2984184;39;20112;-40
2020/12/01 08:37:03;;;;;;;23.40;10.43;;;;;;;0.57;79.17;100559.78;2985177;39;20192;-41
2020/12/01 08:39:35;;;;;;;17.45;9.10;;;;;;;0.61;78.74;100560.13;2981448;39;20139;-40
2020/12/01 08:41:48;;;;;;;18.77;9.50;;;;;;;0.63;78.53;100557.66;2975504;39;20141;-42
2020/12/01 08:43:54;;;;;;;18.73;9.15;;;;;;;0.65;78.34;100557.75;2983540;39;20127;-41
2020/12/01 08:46:06;;;;;;;21.48;9.38;;;;;;;0.65;78.05;100547.53;2982958;39;20209;-41
2020/12/01 08:48:24;;;;;;;18.30;7.90;;;;;;;0.64;77.59;100550.88;2980879;39;20136;-40
2020/12/01 08:50:29;;;;;;;17.80;8.48;;;;;;;0.61;77.47;100543.88;2982207;39;20403;-40
2020/12/01 08:52:38;;;;;;;18.25;8.10;;;;;;;0.60;77.74;100544.69;2981269;39;20115;-40
2020/12/01 08:54:39;;;;;;;16.98;8.75;;;;;;;0.53;77.54;100552.72;2984080;39;20124;-41
2020/12/01 08:57:19;;;;;;;19.25;8.95;;;;;;;0.48;77.68;100547.28;2982272;39;20142;-40
2020/12/01 08:59:26;;;;;;;17.33;8.07;;;;;;;0.45;77.71;100546.19;2984055;39;20722;-40
2020/12/01 09:01:38;;;;;;;13.23;7.05;;;;;;;0.42;77.76;100535.00;2983534;39;20107;-40
2020/12/01 09:03:53;;;;;;;15.35;7.88;;;;;;;0.41;77.98;100538.31;2984656;39;20133;-40
2020/12/01 09:05:55;;;;;;;14.88;7.50;;;;;;;0.39;78.22;100539.88;2984902;39;20187;-40
2020/12/01 09:08:11;;;;;;;16.90;7.80;;;;;;;0.40;78.38;100544.22;2987055;39;20116;-40
2020/12/01 09:10:19;;;;;;;14.43;7.82;;;;;;;0.40;78.68;100534.03;2981806;39;20180;-40
2020/12/01 09:12:31;;;;;;;15.52;8.15;;;;;;;0.42;78.12;100542.66;2983925;39;20112;-40
2020/12/01 09:14:46;;;;;;;13.50;8.27;;;;;;;0.40;78.04;100531.47;2981872;39;20534;-40
2020/12/01 09:16:56;;;;;;;14.45;7.57;;;;;;;0.40;78.04;100528.00;2983243;39;20113;-40
2020/12/01 09:19:19;;;;;;;16.77;7.78;;;;;;;0.37;77.91;100523.59;2980231;39;20109;-41
2020/12/01 09:23:45;;;;;;;19.88;8.70;;;;;;;0.36;78.13;100526.03;2983169;39;20116;-40
2020/12/01 09:25:49;;;;;;;20.55;7.93;;;;;;;0.36;77.98;100526.03;2985220;39;20661;-40
2020/12/01 09:27:54;;;;;;;16.05;6.88;;;;;;;0.34;78.10;100519.94;2983234;39;20124;-39
2020/12/01 09:29:56;;;;;;;12.90;6.18;;;;;;;0.34;78.00;100514.84;2982733;39;20207;-40
2020/12/01 09:31:57;;;;;;;11.50;5.25;;;;;;;0.34;77.52;100522.50;2982691;39;20124;-40
2020/12/01 09:33:59;;;;;;;13.85;6.00;;;;;;;0.33;77.39;100521.63;2984220;39;20112;-39
2020/12/01 09:36:01;;;;;;;14.02;6.53;;;;;;;0.33;77.14;100520.72;2984205;39;20484;-40
2020/12/01 09:38:03;;;;;;;13.82;6.97;;;;;;;0.30;77.36;100518.84;2982916;39;20111;-39
2020/12/01 09:40:04;;;;;;;17.38;6.50;;;;;;;0.29;77.47;100519.63;2982637;39;20590;-40